createdAt,value
2023-02-11T00:01:31.917Z,-4.67
2023-02-11T00:04:34.658Z,-4.66
2023-02-11T00:07:37.410Z,-4.67
2023-02-11T00:10:40.129Z,-4.78
2023-02-11T00:13:43.720Z,-4.90
2023-02-11T00:16:46.547Z,-4.87
2023-02-11T00:19:50.557Z,-5.03
2023-02-11T00:22:53.307Z,-5.04
2023-02-11T00:25:56.086Z,-4.93
2023-02-11T00:28:59.728Z,-4.97
2023-02-11T00:32:05.500Z,-4.90
2023-02-11T00:35:08.536Z,-4.92
2023-02-11T00:38:11.333Z,-4.83
2023-02-11T00:41:16.367Z,-4.80
2023-02-11T00:44:19.497Z,-4.66
2023-02-11T00:47:23.726Z,-4.66
2023-02-11T00:50:26.707Z,-4.44
2023-02-11T00:53:31.613Z,-4.26
2023-02-11T00:56:35.021Z,-4.26
2023-02-11T00:59:37.923Z,-4.32
2023-02-11T01:02:41.792Z,-4.40
2023-02-11T01:05:45.896Z,-4.29
2023-02-11T01:08:48.738Z,-4.23
2023-02-11T01:11:51.597Z,-4.13
2023-02-11T01:14:54.322Z,-3.97
2023-02-11T01:17:57.192Z,-4.00
2023-02-11T01:21:00.054Z,-3.99
2023-02-11T01:24:02.757Z,-3.99
2023-02-11T01:27:05.484Z,-4.03
2023-02-11T01:30:10.170Z,-4.10
2023-02-11T01:33:13.011Z,-4.12
2023-02-11T01:36:15.785Z,-4.07
2023-02-11T01:39:18.650Z,-3.85
2023-02-11T01:42:24.183Z,-3.91
2023-02-11T01:45:46.296Z,-4.02
2023-02-11T01:48:55.753Z,-3.84
2023-02-11T01:52:19.248Z,-3.71
2023-02-11T01:55:42.103Z,-3.75
2023-02-11T01:58:48.129Z,-3.79
2023-02-11T02:01:57.343Z,-3.87
2023-02-11T02:05:19.504Z,-3.96
2023-02-11T02:08:55.683Z,-3.78
2023-02-11T02:11:58.552Z,-3.82
2023-02-11T02:15:33.933Z,-3.76
2023-02-11T02:18:49.024Z,-3.76
2023-02-11T02:22:14.400Z,-3.80
2023-02-11T02:25:45.086Z,-3.83
2023-02-11T02:29:12.273Z,-3.78
2023-02-11T02:32:35.884Z,-3.92
2023-02-11T02:36:09.491Z,-4.00
2023-02-11T02:39:21.549Z,-4.11
2023-02-11T02:42:25.987Z,-3.94
2023-02-11T02:45:28.860Z,-3.91
2023-02-11T02:48:35.852Z,-4.00
2023-02-11T02:52:00.439Z,-4.00
2023-02-11T02:55:17.626Z,-4.06
2023-02-11T02:58:39.069Z,-3.98
2023-02-11T03:01:51.781Z,-4.05
2023-02-11T03:05:22.961Z,-4.12
2023-02-11T03:08:50.117Z,-4.13
2023-02-11T03:11:53.215Z,-4.21
2023-02-11T03:14:56.004Z,-4.15
2023-02-11T03:18:02.292Z,-4.07
2023-02-11T03:21:07.294Z,-4.09
2023-02-11T03:24:19.542Z,-4.13
2023-02-11T03:27:27.290Z,-4.02
2023-02-11T03:30:40.494Z,-3.99
2023-02-11T03:34:02.728Z,-3.93
2023-02-11T03:37:11.931Z,-3.88
2023-02-11T03:40:32.127Z,-3.90
2023-02-11T03:43:40.711Z,-3.93
2023-02-11T03:46:49.080Z,-3.98
2023-02-11T03:49:54.865Z,-3.97
2023-02-11T03:53:01.068Z,-4.00
2023-02-11T03:56:08.392Z,-3.94
2023-02-11T03:59:11.196Z,-4.00
2023-02-11T04:02:13.969Z,-4.11
2023-02-11T04:05:16.907Z,-4.08
2023-02-11T04:08:20.184Z,-4.15
2023-02-11T04:11:22.944Z,-4.26
2023-02-11T04:14:25.688Z,-4.31
2023-02-11T04:17:28.424Z,-4.43
2023-02-11T04:20:31.234Z,-4.30
2023-02-11T04:23:34.081Z,-4.16
2023-02-11T04:26:36.800Z,-4.20
2023-02-11T04:29:39.633Z,-4.13
2023-02-11T04:32:42.338Z,-4.25
2023-02-11T04:35:45.367Z,-4.44
2023-02-11T04:38:48.453Z,-4.35
2023-02-11T04:41:51.282Z,-4.33
2023-02-11T04:44:54.036Z,-4.37
2023-02-11T04:47:56.806Z,-4.64
2023-02-11T04:51:00.030Z,-4.79
2023-02-11T04:54:02.769Z,-4.52
2023-02-11T04:57:05.900Z,-4.38
2023-02-11T05:00:10.160Z,-4.41
2023-02-11T05:03:13.385Z,-4.38
2023-02-11T05:06:16.069Z,-4.42
2023-02-11T05:09:18.868Z,-4.70
2023-02-11T05:12:22.065Z,-4.56
2023-02-11T05:15:24.832Z,-4.44
2023-02-11T05:18:27.580Z,-4.46
2023-02-11T05:21:30.427Z,-4.47
2023-02-11T05:24:33.219Z,-4.50
2023-02-11T05:27:36.279Z,-4.57
2023-02-11T05:30:39.265Z,-4.62
2023-02-11T05:33:43.178Z,-4.51
2023-02-11T05:36:45.972Z,-4.62
2023-02-11T05:39:48.695Z,-4.73
2023-02-11T05:42:51.494Z,-4.70
2023-02-11T05:45:54.625Z,-4.69
2023-02-11T05:48:57.594Z,-4.64
2023-02-11T05:52:00.424Z,-4.59
2023-02-11T05:55:03.228Z,-4.61
2023-02-11T05:58:07.109Z,-4.68
2023-02-11T06:01:09.870Z,-4.61
2023-02-11T06:04:12.685Z,-4.64
2023-02-11T06:07:15.441Z,-4.61
2023-02-11T06:10:18.293Z,-4.47
2023-02-11T06:13:21.646Z,-4.31
2023-02-11T06:16:24.746Z,-4.32
2023-02-11T06:19:28.012Z,-4.33
2023-02-11T06:22:30.814Z,-4.26
2023-02-11T06:25:33.578Z,-4.19
2023-02-11T06:28:36.403Z,-4.09
2023-02-11T06:31:39.767Z,-3.87
2023-02-11T06:34:42.628Z,-3.70
2023-02-11T06:37:45.481Z,-3.62
2023-02-11T06:40:49.507Z,-3.47
2023-02-11T06:43:53.562Z,-3.43
2023-02-11T06:46:56.378Z,-3.41
2023-02-11T06:49:59.248Z,-3.27
2023-02-11T06:53:02.279Z,-3.09
2023-02-11T06:56:07.188Z,-2.97
2023-02-11T06:59:15.676Z,-2.90
2023-02-11T07:02:20.763Z,-2.77
2023-02-11T07:05:24.449Z,-2.70
2023-02-11T07:08:27.498Z,-2.54
2023-02-11T07:11:31.226Z,-2.34
2023-02-11T07:14:33.953Z,-2.17
2023-02-11T07:17:36.798Z,-2.05
2023-02-11T07:20:39.517Z,-2.01
2023-02-11T07:23:42.392Z,-1.78
2023-02-11T07:26:45.182Z,-1.68
2023-02-11T07:29:48.848Z,-1.52
2023-02-11T07:32:51.584Z,-1.23
2023-02-11T07:35:54.381Z,-1.23
2023-02-11T07:38:57.090Z,-1.11
2023-02-11T07:42:00.257Z,-1.00
2023-02-11T07:45:03.786Z,-0.92
2023-02-11T07:48:06.812Z,-0.77
2023-02-11T07:51:18.025Z,-0.65
2023-02-11T07:54:21.283Z,-0.49
2023-02-11T07:57:24.043Z,-0.34
2023-02-11T08:00:27.076Z,-0.16
2023-02-11T08:03:30.069Z,-0.03
2023-02-11T08:06:34.689Z,-0.04
2023-02-11T08:09:37.686Z,0.17
2023-02-11T08:12:40.485Z,0.30
2023-02-11T08:15:43.339Z,0.28
2023-02-11T08:18:46.743Z,0.40
2023-02-11T08:21:50.739Z,0.54
2023-02-11T08:24:53.435Z,0.72
2023-02-11T08:27:56.511Z,0.89
2023-02-11T08:31:09.060Z,1.10
2023-02-11T08:34:14.498Z,1.20
2023-02-11T08:37:17.843Z,1.25
2023-02-11T08:40:21.086Z,1.36
2023-02-11T08:43:23.829Z,1.50
2023-02-11T08:46:27.412Z,1.70
2023-02-11T08:49:31.601Z,1.94
2023-02-11T08:52:34.542Z,2.14
2023-02-11T08:55:37.395Z,2.12
2023-02-11T08:58:41.284Z,2.28
2023-02-11T09:01:44.525Z,2.41
2023-02-11T09:04:47.524Z,2.63
2023-02-11T09:07:50.347Z,2.81
2023-02-11T09:10:57.180Z,3.24
2023-02-11T09:14:00.688Z,3.33
2023-02-11T09:17:03.457Z,3.45
2023-02-11T09:20:08.596Z,3.48
2023-02-11T09:23:13.229Z,4.05
2023-02-11T09:26:35.961Z,4.38
2023-02-11T09:29:38.803Z,4.99
2023-02-11T09:32:41.740Z,4.99
2023-02-11T09:35:44.472Z,5.17
2023-02-11T09:38:48.293Z,4.91
2023-02-11T09:42:20.332Z,4.99
2023-02-11T09:45:28.917Z,4.74
2023-02-11T09:48:43.032Z,4.87
2023-02-11T09:51:51.770Z,4.90
2023-02-11T09:55:00.485Z,5.13
2023-02-11T09:58:07.812Z,5.12
2023-02-11T10:01:19.965Z,5.18
2023-02-11T10:04:53.754Z,5.71
2023-02-11T10:08:24.550Z,5.84
2023-02-11T10:11:32.919Z,6.07
2023-02-11T10:14:48.513Z,6.34
2023-02-11T10:17:53.940Z,6.73
2023-02-11T10:20:59.418Z,6.63
2023-02-11T10:24:10.214Z,6.56
2023-02-11T10:27:20.430Z,6.69
2023-02-11T10:30:35.323Z,6.40
2023-02-11T10:33:54.303Z,6.21
2023-02-11T10:36:57.059Z,6.36
2023-02-11T10:40:00.654Z,6.54
2023-02-11T10:43:06.808Z,6.37
2023-02-11T10:46:24.416Z,6.16
2023-02-11T10:49:39.330Z,6.48
2023-02-11T10:52:42.103Z,6.93
2023-02-11T10:55:54.153Z,7.04
2023-02-11T10:59:05.834Z,6.71
2023-02-11T11:02:32.216Z,6.58
2023-02-11T11:05:47.371Z,6.31
2023-02-11T11:08:52.160Z,6.33
2023-02-11T11:11:55.084Z,6.31
2023-02-11T11:15:19.989Z,6.19
2023-02-11T11:18:23.616Z,6.24
2023-02-11T11:21:46.865Z,6.52
2023-02-11T11:24:55.365Z,6.46
2023-02-11T11:28:01.350Z,6.61
2023-02-11T11:31:05.165Z,6.77
2023-02-11T11:34:35.493Z,6.75
2023-02-11T11:37:39.299Z,6.72
2023-02-11T11:40:42.319Z,6.56
2023-02-11T11:44:17.150Z,6.45
2023-02-11T11:47:27.276Z,6.57
2023-02-11T11:50:52.492Z,6.59
2023-02-11T11:54:00.881Z,6.51
2023-02-11T11:57:13.778Z,6.68
2023-02-11T12:00:40.902Z,6.49
2023-02-11T12:04:20.871Z,6.62
2023-02-11T12:07:54.361Z,6.37
2023-02-11T12:11:10.049Z,6.52
2023-02-11T12:14:23.227Z,6.50
2023-02-11T12:17:41.355Z,6.51
2023-02-11T12:21:18.385Z,6.79
2023-02-11T12:24:56.575Z,6.54
2023-02-11T12:28:20.438Z,6.68
2023-02-11T12:31:30.666Z,6.79
2023-02-11T12:34:50.337Z,6.89
2023-02-11T12:37:52.998Z,6.60
2023-02-11T12:40:55.723Z,6.51
2023-02-11T12:43:59.326Z,6.31
2023-02-11T12:47:35.280Z,6.26
2023-02-11T12:51:15.132Z,6.15
2023-02-11T12:54:33.295Z,5.97
2023-02-11T12:57:39.558Z,5.95
2023-02-11T13:00:51.437Z,5.98
2023-02-11T13:04:18.875Z,5.80
2023-02-11T13:07:45.016Z,5.96
2023-02-11T13:10:50.753Z,6.06
2023-02-11T13:14:05.244Z,6.15
2023-02-11T13:17:19.857Z,6.09
2023-02-11T13:20:45.945Z,6.11
2023-02-11T13:24:09.862Z,6.02
2023-02-11T13:27:24.537Z,5.79
2023-02-11T13:30:41.164Z,5.78
2023-02-11T13:33:44.523Z,5.68
2023-02-11T13:36:55.361Z,5.75
2023-02-11T13:40:20.572Z,5.75
2023-02-11T13:43:28.940Z,5.74
2023-02-11T13:46:50.891Z,5.70
2023-02-11T13:49:54.496Z,5.63
2023-02-11T13:53:01.343Z,5.59
2023-02-11T13:56:11.541Z,5.68
2023-02-11T13:59:26.737Z,5.77
2023-02-11T14:02:50.113Z,5.75
2023-02-11T14:06:27.285Z,5.80
2023-02-11T14:09:37.410Z,5.63
2023-02-11T14:12:40.395Z,5.44
2023-02-11T14:15:46.503Z,5.40
2023-02-11T14:18:49.749Z,5.29
2023-02-11T14:22:12.013Z,5.17
2023-02-11T14:25:24.432Z,5.04
2023-02-11T14:28:34.421Z,5.07
2023-02-11T14:32:03.927Z,5.03
2023-02-11T14:35:31.872Z,4.98
2023-02-11T14:39:03.218Z,4.90
2023-02-11T14:42:07.721Z,4.83
2023-02-11T14:45:18.598Z,4.83
2023-02-11T14:48:28.843Z,4.82
2023-02-11T14:51:39.054Z,4.68
2023-02-11T14:54:44.162Z,4.65
2023-02-11T14:57:49.586Z,4.65
2023-02-11T15:00:58.522Z,4.61
2023-02-11T15:04:03.511Z,4.63
2023-02-11T15:07:08.474Z,4.64
2023-02-11T15:10:38.148Z,4.65
2023-02-11T15:13:47.603Z,4.61
2023-02-11T15:16:56.026Z,4.71
2023-02-11T15:20:02.083Z,4.68
2023-02-11T15:23:14.989Z,4.73
2023-02-11T15:26:21.866Z,4.69
2023-02-11T15:29:34.868Z,4.69
2023-02-11T15:32:41.276Z,4.57
2023-02-11T15:35:44.601Z,4.57
2023-02-11T15:39:31.615Z,4.49
2023-02-11T15:42:50.650Z,4.36
2023-02-11T15:46:00.552Z,4.39
2023-02-11T15:49:04.185Z,4.32
2023-02-11T15:52:08.548Z,4.25
2023-02-11T15:55:15.236Z,4.18
2023-02-11T15:58:19.122Z,4.17
2023-02-11T16:01:36.517Z,4.09
2023-02-11T16:04:39.622Z,4.05
2023-02-11T16:07:47.229Z,4.07
2023-02-11T16:11:03.439Z,4.01
2023-02-11T16:14:29.605Z,3.98
2023-02-11T16:17:32.598Z,3.93
2023-02-11T16:20:35.477Z,3.89
2023-02-11T16:23:42.519Z,3.86
2023-02-11T16:26:50.373Z,3.81
2023-02-11T16:29:53.671Z,3.76
2023-02-11T16:32:57.443Z,3.72
2023-02-11T16:36:02.331Z,3.69
2023-02-11T16:39:05.346Z,3.64
2023-02-11T16:42:08.562Z,3.66
2023-02-11T16:45:12.191Z,3.61
2023-02-11T16:48:19.355Z,3.57
2023-02-11T16:51:22.811Z,3.57
2023-02-11T16:54:28.730Z,3.58
2023-02-11T16:57:32.286Z,3.56
2023-02-11T17:00:36.637Z,3.57
2023-02-11T17:03:40.763Z,3.55
2023-02-11T17:06:43.961Z,3.55
2023-02-11T17:09:46.886Z,3.52
2023-02-11T17:12:51.224Z,3.49
2023-02-11T17:15:54.560Z,3.47
2023-02-11T17:18:57.804Z,3.51
2023-02-11T17:22:00.792Z,3.50
2023-02-11T17:25:03.892Z,3.46
2023-02-11T17:28:08.900Z,3.47
2023-02-11T17:31:12.150Z,3.48
2023-02-11T17:34:16.419Z,3.60
2023-02-11T17:37:19.181Z,3.62
2023-02-11T17:40:22.310Z,3.65
2023-02-11T17:43:25.263Z,3.67
2023-02-11T17:46:28.829Z,3.61
2023-02-11T17:49:32.036Z,3.72
2023-02-11T17:52:34.806Z,3.72
2023-02-11T17:55:38.613Z,3.71
2023-02-11T17:58:41.876Z,3.72
2023-02-11T18:01:44.931Z,3.71
2023-02-11T18:04:48.046Z,3.63
2023-02-11T18:07:50.842Z,3.50
2023-02-11T18:10:53.871Z,3.55
2023-02-11T18:13:59.630Z,3.51
2023-02-11T18:17:02.671Z,3.50
2023-02-11T18:20:06.698Z,3.46
2023-02-11T18:23:11.171Z,3.52
2023-02-11T18:26:15.786Z,3.55
2023-02-11T18:29:20.141Z,3.51
2023-02-11T18:32:23.140Z,3.53
2023-02-11T18:35:26.127Z,3.60
2023-02-11T18:38:28.899Z,3.54
2023-02-11T18:41:31.690Z,3.51
2023-02-11T18:44:34.758Z,3.52
2023-02-11T18:47:38.842Z,3.60
2023-02-11T18:50:43.426Z,3.52
2023-02-11T18:53:46.906Z,3.49
2023-02-11T18:56:49.888Z,3.46
2023-02-11T18:59:52.863Z,3.51
2023-02-11T19:02:55.954Z,3.49
2023-02-11T19:05:59.038Z,3.62
2023-02-11T19:09:09.920Z,3.46
2023-02-11T19:12:12.973Z,3.46
2023-02-11T19:15:16.301Z,3.42
2023-02-11T19:18:19.286Z,3.43
2023-02-11T19:21:22.672Z,3.37
2023-02-11T19:24:27.060Z,3.34
2023-02-11T19:27:30.060Z,3.34
2023-02-11T19:30:33.128Z,3.27
2023-02-11T19:33:36.542Z,3.32
2023-02-11T19:36:40.002Z,3.30
2023-02-11T19:39:43.703Z,3.28
2023-02-11T19:42:47.171Z,3.33
2023-02-11T19:45:50.721Z,3.39
2023-02-11T19:48:55.062Z,3.39
2023-02-11T19:51:58.340Z,3.37
2023-02-11T19:55:01.317Z,3.44
2023-02-11T19:58:04.336Z,3.48
2023-02-11T20:01:12.911Z,3.46
2023-02-11T20:04:17.426Z,3.52
2023-02-11T20:07:20.584Z,3.56
2023-02-11T20:10:25.212Z,3.59
2023-02-11T20:13:30.364Z,3.59
2023-02-11T20:16:47.410Z,3.65
2023-02-11T20:19:51.589Z,3.70
2023-02-11T20:22:54.612Z,3.68
2023-02-11T20:25:57.659Z,3.80
2023-02-11T20:29:04.554Z,3.85
2023-02-11T20:32:08.291Z,3.80
2023-02-11T20:35:11.418Z,3.78
2023-02-11T20:38:14.491Z,3.78
2023-02-11T20:41:23.931Z,3.76
2023-02-11T20:44:27.520Z,3.76
2023-02-11T20:47:31.815Z,3.76
2023-02-11T20:50:35.326Z,3.74
2023-02-11T20:53:41.896Z,3.73
2023-02-11T20:56:47.743Z,3.78
2023-02-11T20:59:50.936Z,3.74
2023-02-11T21:02:53.972Z,3.78
2023-02-11T21:06:03.786Z,3.77
2023-02-11T21:09:08.817Z,3.63
2023-02-11T21:12:11.893Z,3.67
2023-02-11T21:15:15.403Z,3.64
2023-02-11T21:18:18.700Z,3.61
2023-02-11T21:21:22.281Z,3.55
2023-02-11T21:24:25.535Z,3.56
2023-02-11T21:27:33.227Z,3.57
2023-02-11T21:30:39.062Z,3.61
2023-02-11T21:33:41.806Z,3.48
2023-02-11T21:36:45.356Z,3.41
2023-02-11T21:39:48.377Z,3.33
2023-02-11T21:42:51.758Z,3.36
2023-02-11T21:45:54.907Z,3.40
2023-02-11T21:48:58.481Z,3.31
2023-02-11T21:52:01.433Z,3.30
2023-02-11T21:55:04.650Z,3.25
2023-02-11T21:58:08.027Z,3.17
2023-02-11T22:01:16.463Z,3.17
2023-02-11T22:04:19.759Z,3.21
2023-02-11T22:07:23.629Z,3.29
2023-02-11T22:10:26.423Z,3.38
2023-02-11T22:13:29.276Z,3.43
2023-02-11T22:16:32.299Z,3.37
2023-02-11T22:19:35.614Z,3.39
2023-02-11T22:22:38.491Z,3.39
2023-02-11T22:25:41.268Z,3.52
2023-02-11T22:28:44.523Z,3.60
2023-02-11T22:31:47.618Z,3.61
2023-02-11T22:34:53.111Z,3.63
2023-02-11T22:37:56.140Z,3.70
2023-02-11T22:41:00.310Z,3.66
2023-02-11T22:44:02.998Z,3.64
2023-02-11T22:47:05.771Z,3.60
2023-02-11T22:50:08.933Z,3.71
2023-02-11T22:53:11.652Z,3.82
2023-02-11T22:56:15.839Z,3.88
2023-02-11T22:59:18.998Z,3.88
2023-02-11T23:02:22.348Z,3.89
2023-02-11T23:05:25.332Z,3.91
2023-02-11T23:08:29.325Z,4.01
2023-02-11T23:11:32.836Z,4.05
2023-02-11T23:14:35.703Z,4.07
2023-02-11T23:17:38.432Z,4.10
2023-02-11T23:20:43.142Z,4.30
2023-02-11T23:23:45.949Z,4.37
2023-02-11T23:26:48.791Z,4.45
2023-02-11T23:29:51.521Z,4.69
2023-02-11T23:32:54.951Z,4.67
2023-02-11T23:35:57.638Z,4.80
2023-02-11T23:39:00.436Z,4.92
2023-02-11T23:42:03.539Z,5.12
2023-02-11T23:45:08.130Z,5.14
2023-02-11T23:48:10.912Z,5.21
2023-02-11T23:51:13.879Z,5.26
2023-02-11T23:54:16.733Z,5.27
2023-02-11T23:57:19.436Z,5.31
